createdAt,value
2018-12-06T00:01:13.768Z,0
2018-12-06T00:04:41.645Z,0
2018-12-06T00:08:09.506Z,0
2018-12-06T00:11:37.398Z,0
2018-12-06T00:15:05.280Z,0
2018-12-06T00:18:33.155Z,0
2018-12-06T00:22:01.021Z,0
2018-12-06T00:25:29.893Z,0
2018-12-06T00:28:58.765Z,0
2018-12-06T00:32:26.628Z,0
2018-12-06T00:35:54.503Z,0
2018-12-06T00:39:22.394Z,0
2018-12-06T00:42:51.249Z,0
2018-12-06T00:46:19.126Z,0
2018-12-06T00:49:47.006Z,0
2018-12-06T00:53:14.874Z,0
2018-12-06T00:56:42.739Z,0
2018-12-06T01:00:10.622Z,0
2018-12-06T01:03:38.497Z,0
2018-12-06T01:07:06.361Z,0
2018-12-06T01:10:34.242Z,0
2018-12-06T01:14:02.119Z,0
2018-12-06T01:17:29.976Z,0
2018-12-06T01:20:57.856Z,0
2018-12-06T01:24:25.735Z,0
2018-12-06T01:27:53.620Z,0
2018-12-06T01:31:21.484Z,0
2018-12-06T01:34:49.363Z,0
2018-12-06T01:38:17.238Z,0
2018-12-06T01:41:45.096Z,0
2018-12-06T01:45:12.975Z,0
2018-12-06T01:48:40.859Z,0
2018-12-06T01:52:08.725Z,0
2018-12-06T01:55:36.602Z,0
2018-12-06T01:59:05.474Z,0
2018-12-06T02:02:33.338Z,0
2018-12-06T02:06:01.223Z,0
2018-12-06T02:09:29.107Z,0
2018-12-06T02:12:56.977Z,0
2018-12-06T02:16:24.853Z,0
2018-12-06T02:19:52.729Z,0
2018-12-06T02:23:20.596Z,0
2018-12-06T02:26:48.478Z,0
2018-12-06T02:30:16.360Z,0
2018-12-06T02:33:44.224Z,0
2018-12-06T02:37:12.105Z,0
2018-12-06T02:40:39.987Z,0
2018-12-06T02:44:07.855Z,0
2018-12-06T02:47:35.731Z,0
2018-12-06T02:51:04.604Z,0
2018-12-06T02:54:32.484Z,0
2018-12-06T02:58:00.353Z,0
2018-12-06T03:01:28.239Z,0
2018-12-06T03:04:56.113Z,0
2018-12-06T03:08:23.997Z,0
2018-12-06T03:11:51.885Z,0
2018-12-06T03:15:19.767Z,0
2018-12-06T03:18:47.628Z,0
2018-12-06T03:22:15.503Z,0
2018-12-06T03:25:43.377Z,0
2018-12-06T03:29:11.261Z,0
2018-12-06T03:32:40.131Z,0
2018-12-06T03:36:08.001Z,0
2018-12-06T03:39:35.883Z,0
2018-12-06T03:43:03.740Z,0
2018-12-06T03:46:31.617Z,0
2018-12-06T03:50:00.487Z,0
2018-12-06T03:53:28.355Z,0
2018-12-06T03:56:56.238Z,0
2018-12-06T04:00:24.117Z,0
2018-12-06T04:03:52.274Z,0
2018-12-06T04:07:21.137Z,0
2018-12-06T04:10:49.017Z,0
2018-12-06T04:14:16.877Z,0
2018-12-06T04:17:44.763Z,0
2018-12-06T04:21:12.647Z,0
2018-12-06T04:24:40.499Z,0
2018-12-06T04:28:08.381Z,0
2018-12-06T04:31:36.260Z,0
2018-12-06T04:35:04.125Z,0
2018-12-06T04:38:32.107Z,0
2018-12-06T04:41:59.989Z,0
2018-12-06T04:45:27.964Z,0
2018-12-06T04:48:55.823Z,0
2018-12-06T04:52:23.702Z,0
2018-12-06T04:55:51.573Z,0
2018-12-06T04:59:19.426Z,0
2018-12-06T05:02:47.310Z,0
2018-12-06T05:09:49.177Z,0
2018-12-06T05:13:17.042Z,0
2018-12-06T05:16:44.906Z,0
2018-12-06T05:20:13.750Z,0
2018-12-06T05:23:41.609Z,0
2018-12-06T05:27:10.470Z,0
2018-12-06T05:30:38.325Z,0
2018-12-06T05:34:06.189Z,0
2018-12-06T05:37:34.062Z,0
2018-12-06T05:41:01.914Z,0
2018-12-06T05:44:29.782Z,0
2018-12-06T05:47:57.646Z,0
2018-12-06T05:51:27.477Z,0
2018-12-06T05:54:55.342Z,0
2018-12-06T05:58:23.226Z,0
2018-12-06T06:01:51.068Z,0
2018-12-06T06:05:18.931Z,0
2018-12-06T06:08:46.800Z,0
2018-12-06T06:12:14.656Z,0
2018-12-06T06:15:42.524Z,0
2018-12-06T06:19:11.380Z,0
2018-12-06T06:22:40.233Z,0
2018-12-06T06:26:08.091Z,0
2018-12-06T06:29:35.955Z,0
2018-12-06T06:33:03.832Z,0
2018-12-06T06:36:32.673Z,0
2018-12-06T06:40:00.532Z,1
2018-12-06T06:43:28.535Z,1
2018-12-06T06:46:56.388Z,2
2018-12-06T06:50:24.251Z,4
2018-12-06T06:53:52.118Z,6
2018-12-06T06:57:19.972Z,9
2018-12-06T07:00:48.831Z,13
2018-12-06T07:04:16.696Z,17
2018-12-06T07:07:44.550Z,23
2018-12-06T07:11:12.413Z,37
2018-12-06T07:14:41.272Z,55
2018-12-06T07:18:09.127Z,69
2018-12-06T07:21:36.989Z,77
2018-12-06T07:25:04.851Z,91
2018-12-06T07:28:32.694Z,113
2018-12-06T07:32:00.571Z,143
2018-12-06T07:35:28.443Z,178
2018-12-06T07:38:57.286Z,222
2018-12-06T07:42:25.153Z,271
2018-12-06T07:45:53.666Z,299
2018-12-06T07:49:21.523Z,330
2018-12-06T07:52:50.380Z,349
2018-12-06T07:56:18.248Z,382
2018-12-06T07:59:46.100Z,426
2018-12-06T08:03:13.970Z,459
2018-12-06T08:06:41.834Z,428
2018-12-06T08:10:09.696Z,410
2018-12-06T08:13:37.545Z,394
2018-12-06T08:17:05.418Z,484
2018-12-06T08:20:33.286Z,527
2018-12-06T08:24:01.139Z,609
2018-12-06T08:27:29.004Z,599
2018-12-06T08:30:56.870Z,506
2018-12-06T08:34:24.726Z,436
2018-12-06T08:37:52.590Z,370
2018-12-06T08:41:20.459Z,423
2018-12-06T08:44:48.322Z,423
2018-12-06T08:48:16.194Z,407
2018-12-06T08:51:44.067Z,418
2018-12-06T08:55:11.920Z,491
2018-12-06T08:58:39.830Z,593
2018-12-06T09:02:07.695Z,606
2018-12-06T09:05:35.563Z,579
2018-12-06T09:09:03.410Z,796
2018-12-06T09:12:31.274Z,844
2018-12-06T09:15:59.144Z,900
2018-12-06T09:19:26.999Z,895
2018-12-06T09:22:54.871Z,824
2018-12-06T09:26:23.181Z,936
2018-12-06T09:29:51.032Z,1076
2018-12-06T09:33:19.902Z,1136
2018-12-06T09:36:47.774Z,766
2018-12-06T09:40:15.671Z,908
2018-12-06T09:43:43.523Z,1023
2018-12-06T09:47:11.392Z,931
2018-12-06T09:50:39.258Z,909
2018-12-06T09:54:08.097Z,903
2018-12-06T09:57:35.960Z,846
2018-12-06T10:01:03.825Z,849
2018-12-06T10:04:31.674Z,1000
2018-12-06T10:08:00.530Z,1200
2018-12-06T10:11:28.401Z,1176
2018-12-06T10:14:56.256Z,1116
2018-12-06T10:18:24.116Z,1211
2018-12-06T10:21:51.991Z,1448
2018-12-06T10:25:19.830Z,1561
2018-12-06T10:28:47.749Z,1558
2018-12-06T10:32:16.192Z,1603
2018-12-06T10:35:44.057Z,1671
2018-12-06T10:39:11.909Z,1346
2018-12-06T10:42:39.773Z,1080
2018-12-06T10:46:07.638Z,1005
2018-12-06T10:49:35.489Z,802
2018-12-06T10:53:03.362Z,770
2018-12-06T10:56:31.231Z,742
2018-12-06T10:59:59.110Z,706
2018-12-06T11:03:26.955Z,1008
2018-12-06T11:06:54.828Z,1177
2018-12-06T11:10:22.734Z,1300
2018-12-06T11:13:50.554Z,1521
2018-12-06T11:17:19.692Z,1718
2018-12-06T11:20:47.563Z,1970
2018-12-06T11:24:16.404Z,1933
2018-12-06T11:27:45.266Z,1669
2018-12-06T11:31:13.130Z,1563
2018-12-06T11:34:41.971Z,1433
2018-12-06T11:38:09.842Z,1188
2018-12-06T11:41:42.889Z,1747
2018-12-06T11:45:10.791Z,1706
2018-12-06T11:48:38.643Z,1615
2018-12-06T11:52:07.501Z,1447
2018-12-06T11:55:35.371Z,1006
2018-12-06T11:59:03.222Z,949
2018-12-06T12:02:31.085Z,901
2018-12-06T12:06:00.935Z,892
2018-12-06T12:09:28.785Z,598
2018-12-06T12:12:56.653Z,614
2018-12-06T12:16:24.808Z,509
2018-12-06T12:19:52.656Z,429
2018-12-06T12:23:20.528Z,427
2018-12-06T12:26:48.401Z,478
2018-12-06T12:30:16.259Z,472
2018-12-06T12:33:44.127Z,550
2018-12-06T12:37:12.001Z,626
2018-12-06T12:40:39.858Z,506
2018-12-06T12:44:08.731Z,460
2018-12-06T12:47:36.595Z,457
2018-12-06T12:51:04.450Z,411
2018-12-06T12:54:32.321Z,417
2018-12-06T12:58:00.188Z,490
2018-12-06T13:01:28.042Z,500
2018-12-06T13:04:55.917Z,593
2018-12-06T13:08:23.790Z,612
2018-12-06T13:11:51.644Z,574
2018-12-06T13:15:20.526Z,502
2018-12-06T13:18:48.395Z,423
2018-12-06T13:22:16.244Z,399
2018-12-06T13:25:44.116Z,308
2018-12-06T13:29:11.982Z,288
2018-12-06T13:32:40.845Z,234
2018-12-06T13:36:08.698Z,155
2018-12-06T13:39:36.559Z,148
2018-12-06T13:43:04.429Z,138
2018-12-06T13:46:32.283Z,118
2018-12-06T13:50:00.156Z,107
2018-12-06T13:53:28.018Z,130
2018-12-06T13:56:55.887Z,140
2018-12-06T14:00:24.826Z,145
2018-12-06T14:03:52.590Z,110
2018-12-06T14:07:20.441Z,79
2018-12-06T14:10:48.507Z,59
2018-12-06T14:14:16.379Z,55
2018-12-06T14:17:44.242Z,54
2018-12-06T14:21:12.091Z,57
2018-12-06T14:24:39.958Z,51
2018-12-06T14:28:07.826Z,42
2018-12-06T14:31:35.677Z,34
2018-12-06T14:35:03.543Z,27
2018-12-06T14:38:32.471Z,23
2018-12-06T14:42:00.319Z,15
2018-12-06T14:45:28.211Z,11
2018-12-06T14:48:56.080Z,9
2018-12-06T14:52:23.928Z,6
2018-12-06T14:55:51.849Z,5
2018-12-06T14:59:19.711Z,4
2018-12-06T15:02:47.566Z,4
2018-12-06T15:06:15.431Z,3
2018-12-06T15:09:44.288Z,3
2018-12-06T15:13:12.133Z,1
2018-12-06T15:16:40.002Z,1
2018-12-06T15:20:07.867Z,0
2018-12-06T15:23:35.717Z,0
2018-12-06T15:27:03.601Z,0
2018-12-06T15:30:32.467Z,0
2018-12-06T15:34:00.313Z,0
2018-12-06T15:37:28.179Z,0
2018-12-06T15:40:56.043Z,0
2018-12-06T15:44:23.896Z,0
2018-12-06T15:47:51.768Z,0
2018-12-06T15:51:19.636Z,0
2018-12-06T15:54:47.567Z,0
2018-12-06T15:58:15.420Z,0
2018-12-06T16:01:43.301Z,0
2018-12-06T16:05:11.162Z,0
2018-12-06T16:08:39.011Z,0
2018-12-06T16:12:06.878Z,0
2018-12-06T16:15:34.753Z,0
2018-12-06T16:19:03.595Z,0
2018-12-06T16:22:31.460Z,0
2018-12-06T16:25:59.323Z,0
2018-12-06T16:29:27.173Z,0
2018-12-06T16:32:55.036Z,0
2018-12-06T16:36:22.904Z,0
2018-12-06T16:39:50.765Z,0
2018-12-06T16:43:18.630Z,0
2018-12-06T16:46:47.487Z,0
2018-12-06T16:50:15.335Z,0
2018-12-06T16:53:43.207Z,0
2018-12-06T16:57:11.160Z,0
2018-12-06T17:00:39.101Z,1
2018-12-06T17:04:06.984Z,1
2018-12-06T17:07:34.951Z,1
2018-12-06T17:11:02.794Z,1
2018-12-06T17:14:30.675Z,1
2018-12-06T17:17:58.678Z,1
2018-12-06T17:21:26.548Z,1
2018-12-06T17:24:55.438Z,1
2018-12-06T17:28:23.302Z,1
2018-12-06T17:31:51.185Z,0
2018-12-06T17:35:19.070Z,0
2018-12-06T17:38:46.946Z,0
2018-12-06T17:42:14.808Z,0
2018-12-06T17:45:42.688Z,0
2018-12-06T17:49:10.576Z,0
2018-12-06T17:52:38.438Z,0
2018-12-06T17:56:06.304Z,0
2018-12-06T17:59:34.183Z,0
2018-12-06T18:03:02.085Z,0
2018-12-06T18:06:29.999Z,0
2018-12-06T18:09:57.986Z,0
2018-12-06T18:13:25.845Z,0
2018-12-06T18:16:53.708Z,0
2018-12-06T18:20:21.608Z,0
2018-12-06T18:23:49.511Z,0
2018-12-06T18:27:17.474Z,0
2018-12-06T18:30:46.936Z,0
2018-12-06T18:34:14.476Z,0
2018-12-06T18:37:42.386Z,0
2018-12-06T18:41:10.272Z,0
2018-12-06T18:44:39.252Z,0
2018-12-06T18:48:07.108Z,0
2018-12-06T18:51:34.982Z,0
2018-12-06T18:55:02.877Z,0
2018-12-06T18:58:34.445Z,0
2018-12-06T19:02:02.577Z,0
2018-12-06T19:05:30.911Z,0
2018-12-06T19:08:59.769Z,0
2018-12-06T19:12:27.638Z,0
2018-12-06T19:15:55.506Z,0
2018-12-06T19:19:23.356Z,0
2018-12-06T19:22:51.236Z,0
2018-12-06T19:26:19.115Z,0
2018-12-06T19:29:46.973Z,0
2018-12-06T19:33:14.842Z,0
2018-12-06T19:36:42.708Z,0
2018-12-06T19:40:10.563Z,0
2018-12-06T19:43:39.428Z,0
2018-12-06T19:47:07.327Z,0
2018-12-06T19:50:35.224Z,0
2018-12-06T19:54:03.083Z,0
2018-12-06T19:57:30.983Z,0
2018-12-06T20:00:58.855Z,0
2018-12-06T20:04:26.716Z,0
2018-12-06T20:07:55.188Z,0
2018-12-06T20:11:23.308Z,0
2018-12-06T20:14:52.158Z,0
2018-12-06T20:18:20.025Z,0
2018-12-06T20:21:47.897Z,0
2018-12-06T20:25:15.750Z,0
2018-12-06T20:28:43.628Z,0
2018-12-06T20:32:15.078Z,0
2018-12-06T20:35:42.363Z,0
2018-12-06T20:39:10.233Z,0
2018-12-06T20:42:38.101Z,0
2018-12-06T20:46:05.955Z,0
2018-12-06T20:49:33.823Z,1
2018-12-06T20:53:01.708Z,0
2018-12-06T20:56:29.599Z,0
2018-12-06T20:59:57.451Z,0
2018-12-06T21:03:25.409Z,0
2018-12-06T21:06:53.278Z,0
2018-12-06T21:10:21.129Z,0
2018-12-06T21:13:50.989Z,0
2018-12-06T21:17:18.869Z,0
2018-12-06T21:20:46.720Z,0
2018-12-06T21:24:14.599Z,0
2018-12-06T21:27:42.496Z,0
2018-12-06T21:31:10.383Z,0
2018-12-06T21:34:38.271Z,0
2018-12-06T21:38:06.142Z,0
2018-12-06T21:41:33.994Z,0
2018-12-06T21:45:01.853Z,0
2018-12-06T21:48:29.717Z,0
2018-12-06T21:51:58.562Z,0
2018-12-06T21:55:26.430Z,0
2018-12-06T21:58:55.286Z,0
2018-12-06T22:02:23.139Z,0
2018-12-06T22:05:50.999Z,0
2018-12-06T22:09:18.875Z,0
2018-12-06T22:12:47.715Z,0
2018-12-06T22:16:15.576Z,0
2018-12-06T22:19:43.437Z,0
2018-12-06T22:23:11.298Z,0
2018-12-06T22:26:39.145Z,0
2018-12-06T22:30:07.014Z,0
2018-12-06T22:33:35.875Z,0
2018-12-06T22:37:03.721Z,0
2018-12-06T22:40:31.594Z,0
2018-12-06T22:43:59.463Z,0
2018-12-06T22:47:27.316Z,0
2018-12-06T22:50:55.190Z,0
2018-12-06T22:54:23.048Z,0
2018-12-06T22:57:50.903Z,0
2018-12-06T23:01:18.767Z,0
2018-12-06T23:04:46.630Z,0
2018-12-06T23:08:14.484Z,0
2018-12-06T23:11:43.340Z,0
2018-12-06T23:15:12.199Z,0
2018-12-06T23:18:40.054Z,0
2018-12-06T23:22:07.924Z,0
2018-12-06T23:25:35.788Z,0
2018-12-06T23:29:03.645Z,0
2018-12-06T23:32:31.517Z,0
2018-12-06T23:35:59.384Z,0
2018-12-06T23:39:27.231Z,0
2018-12-06T23:42:55.098Z,0
2018-12-06T23:46:22.969Z,0
2018-12-06T23:49:50.818Z,0
2018-12-06T23:53:18.686Z,0
2018-12-06T23:56:46.543Z,0
